sensor_id;sensor_type;location;lat;lon;timestamp;pressure;altitude;pressure_sealevel;temperature;humidity
45467;BME280;31212;49.734;8.490;2022-07-29T00:00:37;99993.38;;;19.48;51.09
45467;BME280;31212;49.734;8.490;2022-07-29T00:03:03;100000.59;;;19.43;51.45
45467;BME280;31212;49.734;8.490;2022-07-29T00:05:30;99993.53;;;19.43;51.31
45467;BME280;31212;49.734;8.490;2022-07-29T00:07:57;99985.84;;;19.39;51.15
45467;BME280;31212;49.734;8.490;2022-07-29T00:10:23;100016.53;;;19.40;51.95
45467;BME280;31212;49.734;8.490;2022-07-29T00:12:51;100064.88;;;19.37;53.04
45467;BME280;31212;49.734;8.490;2022-07-29T00:15:18;100077.97;;;19.16;54.05
45467;BME280;31212;49.734;8.490;2022-07-29T00:17:44;100090.88;;;19.23;54.38
45467;BME280;31212;49.734;8.490;2022-07-29T00:20:11;100089.19;;;19.20;54.33
45467;BME280;31212;49.734;8.490;2022-07-29T00:22:38;100082.69;;;19.07;54.40
45467;BME280;31212;49.734;8.490;2022-07-29T00:25:05;100088.28;;;18.97;54.55
45467;BME280;31212;49.734;8.490;2022-07-29T00:27:32;100100.25;;;18.81;55.17
45467;BME280;31212;49.734;8.490;2022-07-29T00:30:00;100100.44;;;18.76;55.07
45467;BME280;31212;49.734;8.490;2022-07-29T00:32:27;100085.88;;;18.66;55.12
45467;BME280;31212;49.734;8.490;2022-07-29T00:34:53;100072.91;;;18.61;54.73
45467;BME280;31212;49.734;8.490;2022-07-29T00:37:37;100079.97;;;18.59;55.18
45467;BME280;31212;49.734;8.490;2022-07-29T00:40:05;100076.88;;;18.48;55.15
45467;BME280;31212;49.734;8.490;2022-07-29T00:42:41;100094.53;;;18.44;55.20
45467;BME280;31212;49.734;8.490;2022-07-29T00:45:10;100084.97;;;18.42;54.94
45467;BME280;31212;49.734;8.490;2022-07-29T00:47:36;100070.97;;;18.41;54.92
45467;BME280;31212;49.734;8.490;2022-07-29T00:50:04;100050.09;;;18.37;54.49
45467;BME280;31212;49.734;8.490;2022-07-29T00:52:32;100044.13;;;18.33;54.67
45467;BME280;31212;49.734;8.490;2022-07-29T00:54:59;100037.72;;;18.40;54.24
45467;BME280;31212;49.734;8.490;2022-07-29T00:57:25;100018.19;;;18.47;53.76
45467;BME280;31212;49.734;8.490;2022-07-29T00:59:52;100012.03;;;18.48;53.70
45467;BME280;31212;49.734;8.490;2022-07-29T01:02:20;100003.28;;;18.48;53.53
45467;BME280;31212;49.734;8.490;2022-07-29T01:04:47;100008.38;;;18.53;53.57
45467;BME280;31212;49.734;8.490;2022-07-29T01:07:14;99999.91;;;18.44;53.46
45467;BME280;31212;49.734;8.490;2022-07-29T01:09:42;100007.91;;;18.41;53.47
45467;BME280;31212;49.734;8.490;2022-07-29T01:12:10;100013.09;;;18.43;53.86
45467;BME280;31212;49.734;8.490;2022-07-29T01:14:38;99989.44;;;18.43;53.53
45467;BME280;31212;49.734;8.490;2022-07-29T01:17:10;100002.47;;;18.46;53.77
45467;BME280;31212;49.734;8.490;2022-07-29T01:19:48;99983.97;;;18.49;53.33
45467;BME280;31212;49.734;8.490;2022-07-29T01:22:25;99991.00;;;18.48;53.50
45467;BME280;31212;49.734;8.490;2022-07-29T01:25:17;100001.56;;;18.47;54.06
45467;BME280;31212;49.734;8.490;2022-07-29T01:28:05;100014.88;;;18.42;54.15
45467;BME280;31212;49.734;8.490;2022-07-29T01:30:38;100016.81;;;18.37;54.43
45467;BME280;31212;49.734;8.490;2022-07-29T01:33:10;100030.00;;;18.36;54.96
45467;BME280;31212;49.734;8.490;2022-07-29T01:35:58;100019.66;;;18.31;54.84
45467;BME280;31212;49.734;8.490;2022-07-29T01:38:28;100011.88;;;18.28;54.79
45467;BME280;31212;49.734;8.490;2022-07-29T01:40:59;100007.53;;;18.27;54.43
45467;BME280;31212;49.734;8.490;2022-07-29T01:43:32;100007.59;;;18.25;54.45
45467;BME280;31212;49.734;8.490;2022-07-29T01:46:05;100003.28;;;18.23;54.53
45467;BME280;31212;49.734;8.490;2022-07-29T01:48:37;99997.28;;;18.19;54.50
45467;BME280;31212;49.734;8.490;2022-07-29T01:51:07;100004.56;;;18.11;54.56
45467;BME280;31212;49.734;8.490;2022-07-29T01:53:39;100010.00;;;18.06;55.09
45467;BME280;31212;49.734;8.490;2022-07-29T01:56:09;100003.97;;;18.03;54.92
45467;BME280;31212;49.734;8.490;2022-07-29T01:58:39;100002.38;;;17.98;54.96
45467;BME280;31212;49.734;8.490;2022-07-29T02:01:08;100007.75;;;17.95;54.96
45467;BME280;31212;49.734;8.490;2022-07-29T02:03:37;99996.28;;;17.98;54.87
45467;BME280;31212;49.734;8.490;2022-07-29T02:06:07;99984.03;;;17.97;54.60
45467;BME280;31212;49.734;8.490;2022-07-29T02:08:36;99983.09;;;17.99;54.77
45467;BME280;31212;49.734;8.490;2022-07-29T02:11:05;99973.28;;;18.05;54.30
45467;BME280;31212;49.734;8.490;2022-07-29T02:13:34;99960.84;;;18.10;54.16
45467;BME280;31212;49.734;8.490;2022-07-29T02:16:02;99960.88;;;18.08;54.02
45467;BME280;31212;49.734;8.490;2022-07-29T02:18:36;99961.84;;;18.06;54.29
45467;BME280;31212;49.734;8.490;2022-07-29T02:21:04;99970.81;;;18.00;54.65
45467;BME280;31212;49.734;8.490;2022-07-29T02:23:32;99978.09;;;17.92;54.70
45467;BME280;31212;49.734;8.490;2022-07-29T02:26:01;99984.31;;;17.88;55.26
45467;BME280;31212;49.734;8.490;2022-07-29T02:28:29;99999.31;;;17.84;55.56
45467;BME280;31212;49.734;8.490;2022-07-29T02:30:59;100005.63;;;17.78;55.90
45467;BME280;31212;49.734;8.490;2022-07-29T02:33:27;100001.41;;;17.74;55.96
45467;BME280;31212;49.734;8.490;2022-07-29T02:35:58;100001.44;;;17.73;55.94
45467;BME280;31212;49.734;8.490;2022-07-29T02:38:27;100001.44;;;17.73;56.08
45467;BME280;31212;49.734;8.490;2022-07-29T02:41:15;100009.97;;;17.79;55.99
45467;BME280;31212;49.734;8.490;2022-07-29T02:43:44;100017.97;;;17.76;56.28
45467;BME280;31212;49.734;8.490;2022-07-29T02:46:14;100024.31;;;17.69;56.14
45467;BME280;31212;49.734;8.490;2022-07-29T02:48:48;100026.88;;;17.71;56.53
45467;BME280;31212;49.734;8.490;2022-07-29T04:13:15;100026.06;;;16.82;57.29
45467;BME280;31212;49.734;8.490;2022-07-29T04:15:42;100025.13;;;16.85;57.48
45467;BME280;31212;49.734;8.490;2022-07-29T04:18:08;100035.50;;;16.89;57.76
45467;BME280;31212;49.734;8.490;2022-07-29T04:20:35;100029.25;;;16.93;57.49
45467;BME280;31212;49.734;8.490;2022-07-29T04:23:02;100012.47;;;17.01;56.86
45467;BME280;31212;49.734;8.490;2022-07-29T04:25:28;100007.00;;;17.07;56.65
45467;BME280;31212;49.734;8.490;2022-07-29T04:27:55;100015.78;;;17.06;57.07
45467;BME280;31212;49.734;8.490;2022-07-29T04:30:29;100003.28;;;17.15;56.49
45467;BME280;31212;49.734;8.490;2022-07-29T04:32:56;100007.47;;;17.21;56.56
45467;BME280;31212;49.734;8.490;2022-07-29T04:35:23;100022.19;;;17.25;56.56
45467;BME280;31212;49.734;8.490;2022-07-29T04:37:50;100025.72;;;17.24;56.86
45467;BME280;31212;49.734;8.490;2022-07-29T04:40:17;100037.09;;;17.25;57.16
45467;BME280;31212;49.734;8.490;2022-07-29T04:42:43;100019.56;;;17.25;56.57
45467;BME280;31212;49.734;8.490;2022-07-29T04:45:10;100034.22;;;17.32;56.73
45467;BME280;31212;49.734;8.490;2022-07-29T04:47:38;100023.66;;;17.36;56.94
45467;BME280;31212;49.734;8.490;2022-07-29T04:50:05;100005.88;;;17.44;56.12
45467;BME280;31212;49.734;8.490;2022-07-29T04:52:32;100004.81;;;17.49;55.88
45467;BME280;31212;49.734;8.490;2022-07-29T04:54:59;100036.09;;;17.56;56.55
45467;BME280;31212;49.734;8.490;2022-07-29T04:57:26;100013.25;;;17.59;56.20
45467;BME280;31212;49.734;8.490;2022-07-29T04:59:52;100004.25;;;17.66;55.91
45467;BME280;31212;49.734;8.490;2022-07-29T05:02:19;100025.97;;;17.72;56.27
45467;BME280;31212;49.734;8.490;2022-07-29T05:04:48;100021.34;;;17.80;55.68
45467;BME280;31212;49.734;8.490;2022-07-29T05:07:15;100024.72;;;17.83;55.61
45467;BME280;31212;49.734;8.490;2022-07-29T05:09:42;100031.53;;;17.89;55.88
45467;BME280;31212;49.734;8.490;2022-07-29T05:12:08;100029.34;;;18.04;55.76
45467;BME280;31212;49.734;8.490;2022-07-29T05:14:35;100025.50;;;18.14;55.41
45467;BME280;31212;49.734;8.490;2022-07-29T05:17:01;100016.38;;;18.24;55.07
45467;BME280;31212;49.734;8.490;2022-07-29T05:19:28;100020.53;;;18.30;55.13
45467;BME280;31212;49.734;8.490;2022-07-29T05:21:56;100005.28;;;18.41;54.41
45467;BME280;31212;49.734;8.490;2022-07-29T05:24:22;99988.16;;;18.55;54.17
45467;BME280;31212;49.734;8.490;2022-07-29T05:26:49;99993.72;;;18.71;54.21
45467;BME280;31212;49.734;8.490;2022-07-29T05:29:16;99995.88;;;18.83;53.94
45467;BME280;31212;49.734;8.490;2022-07-29T05:31:42;99973.69;;;18.90;53.19
45467;BME280;31212;49.734;8.490;2022-07-29T05:34:09;100001.19;;;19.05;53.68
45467;BME280;31212;49.734;8.490;2022-07-29T05:36:36;100000.97;;;19.11;53.43
45467;BME280;31212;49.734;8.490;2022-07-29T05:39:04;100034.50;;;19.28;54.22
45467;BME280;31212;49.734;8.490;2022-07-29T05:41:31;100097.09;;;19.44;55.69
45467;BME280;31212;49.734;8.490;2022-07-29T05:43:58;100053.56;;;19.57;54.64
45467;BME280;31212;49.734;8.490;2022-07-29T05:46:24;100004.22;;;19.62;53.16
45467;BME280;31212;49.734;8.490;2022-07-29T05:48:51;100035.84;;;19.61;53.97
45467;BME280;31212;49.734;8.490;2022-07-29T05:51:17;100047.25;;;19.61;54.28
45467;BME280;31212;49.734;8.490;2022-07-29T05:53:44;100038.91;;;19.72;53.91
45467;BME280;31212;49.734;8.490;2022-07-29T05:56:12;100027.66;;;19.91;53.14
45467;BME280;31212;49.734;8.490;2022-07-29T05:58:39;100063.81;;;20.08;54.16
45467;BME280;31212;49.734;8.490;2022-07-29T06:01:05;99997.16;;;20.26;52.23
45467;BME280;31212;49.734;8.490;2022-07-29T06:03:32;99980.22;;;20.32;51.51
45467;BME280;31212;49.734;8.490;2022-07-29T06:05:59;100049.00;;;20.46;53.13
45467;BME280;31212;49.734;8.490;2022-07-29T06:08:26;100092.97;;;20.66;54.06
45467;BME280;31212;49.734;8.490;2022-07-29T06:10:52;100039.56;;;20.82;52.56
45467;BME280;31212;49.734;8.490;2022-07-29T06:13:20;99991.13;;;21.02;51.06
45467;BME280;31212;49.734;8.490;2022-07-29T06:15:47;100017.50;;;21.21;51.30
45467;BME280;31212;49.734;8.490;2022-07-29T06:18:14;99989.22;;;21.42;50.82
45467;BME280;31212;49.734;8.490;2022-07-29T06:20:40;100047.47;;;21.58;52.21
45467;BME280;31212;49.734;8.490;2022-07-29T06:23:07;99930.63;;;21.71;48.83
45467;BME280;31212;49.734;8.490;2022-07-29T06:25:35;99925.41;;;22.04;48.69
45467;BME280;31212;49.734;8.490;2022-07-29T06:28:02;100002.81;;;22.24;50.45
45467;BME280;31212;49.734;8.490;2022-07-29T06:30:30;99905.13;;;22.38;47.76
45467;BME280;31212;49.734;8.490;2022-07-29T06:32:57;99976.84;;;22.81;48.86
45467;BME280;31212;49.734;8.490;2022-07-29T06:35:23;99867.13;;;23.03;46.51
45467;BME280;31212;49.734;8.490;2022-07-29T06:37:50;99902.03;;;23.26;46.68
45467;BME280;31212;49.734;8.490;2022-07-29T06:40:17;99820.59;;;23.29;45.12
45467;BME280;31212;49.734;8.490;2022-07-29T06:43:01;99856.25;;;23.08;45.98
45467;BME280;31212;49.734;8.490;2022-07-29T06:45:28;99821.91;;;22.92;45.38
45467;BME280;31212;49.734;8.490;2022-07-29T06:47:56;99817.25;;;22.65;45.59
45467;BME280;31212;49.734;8.490;2022-07-29T06:50:22;99873.47;;;22.53;47.09
45467;BME280;31212;49.734;8.490;2022-07-29T06:52:49;99885.94;;;22.66;47.05
45467;BME280;31212;49.734;8.490;2022-07-29T06:55:16;99928.19;;;22.84;47.94
45467;BME280;31212;49.734;8.490;2022-07-29T06:57:44;99812.44;;;22.72;45.40
45467;BME280;31212;49.734;8.490;2022-07-29T07:00:12;99914.78;;;22.87;47.29
45467;BME280;31212;49.734;8.490;2022-07-29T07:02:39;99920.72;;;23.69;46.35
45467;BME280;31212;49.734;8.490;2022-07-29T07:05:07;99884.50;;;24.42;44.88
45467;BME280;31212;49.734;8.490;2022-07-29T07:07:34;99900.75;;;25.06;44.75
45467;BME280;31212;49.734;8.490;2022-07-29T07:10:01;99777.28;;;25.39;41.91
45467;BME280;31212;49.734;8.490;2022-07-29T07:12:27;99768.63;;;26.37;40.45
45467;BME280;31212;49.734;8.490;2022-07-29T07:14:54;99792.19;;;27.84;39.91
45467;BME280;31212;49.734;8.490;2022-07-29T07:17:20;99752.47;;;28.80;38.39
45467;BME280;31212;49.734;8.490;2022-07-29T07:19:47;99595.31;;;29.66;35.24
45467;BME280;31212;49.734;8.490;2022-07-29T07:22:15;99616.53;;;30.48;34.81
45467;BME280;31212;49.734;8.490;2022-07-29T07:24:42;99515.19;;;30.14;33.59
45467;BME280;31212;49.734;8.490;2022-07-29T07:27:08;99562.66;;;30.22;33.95
45467;BME280;31212;49.734;8.490;2022-07-29T07:29:35;99633.47;;;31.33;34.04
45467;BME280;31212;49.734;8.490;2022-07-29T07:32:01;99494.16;;;31.50;32.13
45467;BME280;31212;49.734;8.490;2022-07-29T07:34:28;99501.16;;;31.43;31.85
45467;BME280;31212;49.734;8.490;2022-07-29T07:36:55;99588.13;;;31.68;33.74
45467;BME280;31212;49.734;8.490;2022-07-29T07:39:23;99520.56;;;31.09;32.95
45467;BME280;31212;49.734;8.490;2022-07-29T07:41:51;99508.78;;;32.89;31.20
45467;BME280;31212;49.734;8.490;2022-07-29T07:44:18;99557.78;;;33.76;31.21
45467;BME280;31212;49.734;8.490;2022-07-29T07:46:45;99485.09;;;34.26;30.08
45467;BME280;31212;49.734;8.490;2022-07-29T07:49:11;99534.75;;;34.23;31.10
45467;BME280;31212;49.734;8.490;2022-07-29T07:51:38;99545.41;;;33.32;31.88
45467;BME280;31212;49.734;8.490;2022-07-29T07:54:05;99575.91;;;32.54;32.91
45467;BME280;31212;49.734;8.490;2022-07-29T07:56:32;99611.66;;;30.71;35.04
45467;BME280;31212;49.734;8.490;2022-07-29T07:58:59;99663.78;;;30.96;35.53
45467;BME280;31212;49.734;8.490;2022-07-29T08:01:26;99651.53;;;30.94;35.53
45467;BME280;31212;49.734;8.490;2022-07-29T08:03:53;99644.63;;;30.81;35.28
45467;BME280;31212;49.734;8.490;2022-07-29T08:06:19;99691.50;;;30.48;36.82
45467;BME280;31212;49.734;8.490;2022-07-29T08:08:46;99728.13;;;31.06;36.76
45467;BME280;31212;49.734;8.490;2022-07-29T08:11:12;99733.41;;;31.35;36.19
45467;BME280;31212;49.734;8.490;2022-07-29T08:13:41;99656.34;;;31.56;35.05
45467;BME280;31212;49.734;8.490;2022-07-29T08:16:08;99647.00;;;32.15;34.48
45467;BME280;31212;49.734;8.490;2022-07-29T08:18:39;99658.94;;;32.57;34.06
45467;BME280;31212;49.734;8.490;2022-07-29T08:21:06;99651.22;;;32.80;34.07
45467;BME280;31212;49.734;8.490;2022-07-29T08:23:33;99621.25;;;32.49;33.53
45467;BME280;31212;49.734;8.490;2022-07-29T08:26:04;99642.53;;;34.56;32.28
45467;BME280;31212;49.734;8.490;2022-07-29T08:28:30;99592.59;;;34.77;31.68
45467;BME280;31212;49.734;8.490;2022-07-29T08:30:58;99689.00;;;33.74;33.92
45467;BME280;31212;49.734;8.490;2022-07-29T08:33:27;99645.31;;;32.77;33.99
45467;BME280;31212;49.734;8.490;2022-07-29T08:35:53;99672.34;;;31.57;35.66
45467;BME280;31212;49.734;8.490;2022-07-29T08:38:20;99683.56;;;30.85;36.33
45467;BME280;31212;49.734;8.490;2022-07-29T08:40:46;99750.97;;;30.91;37.18
45467;BME280;31212;49.734;8.490;2022-07-29T08:43:13;99802.63;;;30.83;38.49
45467;BME280;31212;49.734;8.490;2022-07-29T08:45:44;99761.41;;;32.26;36.03
45467;BME280;31212;49.734;8.490;2022-07-29T08:48:13;99706.94;;;32.96;34.48
45467;BME280;31212;49.734;8.490;2022-07-29T08:50:41;99671.19;;;33.04;34.09
45467;BME280;31212;49.734;8.490;2022-07-29T08:53:11;99682.16;;;32.84;34.34
45467;BME280;31212;49.734;8.490;2022-07-29T08:55:39;99677.53;;;34.15;33.11
45467;BME280;31212;49.734;8.490;2022-07-29T08:58:07;99625.38;;;34.49;31.83
45467;BME280;31212;49.734;8.490;2022-07-29T09:00:35;99624.16;;;34.60;31.95
45467;BME280;31212;49.734;8.490;2022-07-29T09:03:04;99618.59;;;34.12;32.54
45467;BME280;31212;49.734;8.490;2022-07-29T09:05:34;99672.09;;;32.68;35.14
45467;BME280;31212;49.734;8.490;2022-07-29T09:08:01;99719.09;;;31.54;36.65
45467;BME280;31212;49.734;8.490;2022-07-29T09:10:28;99754.22;;;30.84;38.00
45467;BME280;31212;49.734;8.490;2022-07-29T09:12:55;99815.16;;;30.63;39.02
45467;BME280;31212;49.734;8.490;2022-07-29T09:15:22;99852.91;;;30.60;39.97
45467;BME280;31212;49.734;8.490;2022-07-29T09:17:49;99792.03;;;30.62;38.51
45467;BME280;31212;49.734;8.490;2022-07-29T09:20:17;99787.34;;;30.93;38.51
45467;BME280;31212;49.734;8.490;2022-07-29T09:22:46;99769.53;;;31.41;37.74
45467;BME280;31212;49.734;8.490;2022-07-29T09:25:15;99789.75;;;31.83;36.90
45467;BME280;31212;49.734;8.490;2022-07-29T09:28:05;99743.34;;;33.09;35.19
45467;BME280;31212;49.734;8.490;2022-07-29T09:30:32;99779.16;;;33.96;35.20
45467;BME280;31212;49.734;8.490;2022-07-29T09:33:00;99740.03;;;35.26;33.08
45467;BME280;31212;49.734;8.490;2022-07-29T09:35:28;99695.72;;;35.99;32.08
45467;BME280;31212;49.734;8.490;2022-07-29T09:37:57;99615.59;;;35.60;31.73
45467;BME280;31212;49.734;8.490;2022-07-29T09:40:25;99588.66;;;34.15;32.62
45467;BME280;31212;49.734;8.490;2022-07-29T09:42:52;99586.44;;;33.94;32.55
45467;BME280;31212;49.734;8.490;2022-07-29T09:45:29;99617.78;;;33.44;33.36
45467;BME280;31212;49.734;8.490;2022-07-29T09:47:57;99712.13;;;33.85;34.60
45467;BME280;31212;49.734;8.490;2022-07-29T09:50:35;99621.72;;;33.74;33.18
45467;BME280;31212;49.734;8.490;2022-07-29T09:53:03;99662.22;;;34.48;33.39
45467;BME280;31212;49.734;8.490;2022-07-29T09:55:30;99701.66;;;34.99;33.50
45467;BME280;31212;49.734;8.490;2022-07-29T09:58:14;99650.31;;;35.24;32.48
45467;BME280;31212;49.734;8.490;2022-07-29T10:00:42;99601.09;;;35.61;31.50
45467;BME280;31212;49.734;8.490;2022-07-29T10:03:09;99582.41;;;36.21;30.60
45467;BME280;31212;49.734;8.490;2022-07-29T10:05:35;99656.47;;;36.58;31.06
45467;BME280;31212;49.734;8.490;2022-07-29T10:08:04;99661.25;;;35.78;32.58
45467;BME280;31212;49.734;8.490;2022-07-29T10:10:34;99529.22;;;37.26;28.91
45467;BME280;31212;49.734;8.490;2022-07-29T10:13:03;99568.13;;;37.40;29.56
45467;BME280;31212;49.734;8.490;2022-07-29T10:15:31;99581.88;;;37.60;29.73
45467;BME280;31212;49.734;8.490;2022-07-29T10:17:59;99540.03;;;37.41;29.50
45467;BME280;31212;49.734;8.490;2022-07-29T10:20:27;99511.38;;;36.50;29.64
45467;BME280;31212;49.734;8.490;2022-07-29T10:22:54;99550.59;;;35.93;30.79
45467;BME280;31212;49.734;8.490;2022-07-29T10:25:23;99561.53;;;35.45;31.18
45467;BME280;31212;49.734;8.490;2022-07-29T10:27:51;99673.03;;;36.09;32.62
45467;BME280;31212;49.734;8.490;2022-07-29T10:30:19;99640.09;;;35.82;32.55
45467;BME280;31212;49.734;8.490;2022-07-29T10:32:57;99637.88;;;35.94;32.19
45467;BME280;31212;49.734;8.490;2022-07-29T10:35:45;99618.28;;;36.38;31.45
45467;BME280;31212;49.734;8.490;2022-07-29T10:38:36;99606.81;;;35.18;32.54
45467;BME280;31212;49.734;8.490;2022-07-29T10:41:19;99571.88;;;34.94;31.76
45467;BME280;31212;49.734;8.490;2022-07-29T10:44:00;99615.94;;;35.89;32.07
45467;BME280;31212;49.734;8.490;2022-07-29T10:46:27;99582.44;;;36.74;30.49
45467;BME280;31212;49.734;8.490;2022-07-29T10:49:05;99551.72;;;37.27;29.66
45467;BME280;31212;49.734;8.490;2022-07-29T10:51:53;99558.84;;;36.53;31.04
45467;BME280;31212;49.734;8.490;2022-07-29T10:57:24;99622.84;;;32.15;36.02
45467;BME280;31212;49.734;8.490;2022-07-29T11:02:51;99718.31;;;31.34;38.30
45467;BME280;31212;49.734;8.490;2022-07-29T11:05:20;99719.25;;;31.43;37.84
45467;BME280;31212;49.734;8.490;2022-07-29T11:08:18;99747.28;;;31.68;37.87
45467;BME280;31212;49.734;8.490;2022-07-29T11:10:47;99769.16;;;32.29;37.46
45467;BME280;31212;49.734;8.490;2022-07-29T11:16:13;99693.09;;;34.54;33.93
45467;BME280;31212;49.734;8.490;2022-07-29T11:21:41;99592.88;;;35.78;31.03
45467;BME280;31212;49.734;8.490;2022-07-29T11:24:11;99567.88;;;36.45;30.29
45467;BME280;31212;49.734;8.490;2022-07-29T11:26:38;99574.59;;;36.49;30.66
45467;BME280;31212;49.734;8.490;2022-07-29T11:29:17;99578.53;;;36.77;30.46
45467;BME280;31212;49.734;8.490;2022-07-29T11:31:48;99519.53;;;36.27;30.06
45467;BME280;31212;49.734;8.490;2022-07-29T11:34:24;99545.72;;;35.65;31.16
45467;BME280;31212;49.734;8.490;2022-07-29T11:37:16;99532.38;;;34.20;32.46
45467;BME280;31212;49.734;8.490;2022-07-29T11:39:44;99487.59;;;34.27;31.89
45467;BME280;31212;49.734;8.490;2022-07-29T11:42:37;99587.09;;;34.62;32.87
45467;BME280;31212;49.734;8.490;2022-07-29T11:45:06;99594.28;;;34.94;32.26
45467;BME280;31212;49.734;8.490;2022-07-29T11:47:37;99660.53;;;34.89;33.88
45467;BME280;31212;49.734;8.490;2022-07-29T11:50:07;99661.38;;;34.23;34.66
45467;BME280;31212;49.734;8.490;2022-07-29T11:52:35;99624.84;;;34.04;34.01
45467;BME280;31212;49.734;8.490;2022-07-29T11:55:04;99577.13;;;34.79;32.72
45467;BME280;31212;49.734;8.490;2022-07-29T11:57:31;99588.97;;;34.12;33.39
45467;BME280;31212;49.734;8.490;2022-07-29T11:59:58;99591.00;;;34.43;33.46
45467;BME280;31212;49.734;8.490;2022-07-29T12:02:24;99592.34;;;34.39;33.35
45467;BME280;31212;49.734;8.490;2022-07-29T12:04:53;99607.16;;;34.18;33.67
45467;BME280;31212;49.734;8.490;2022-07-29T12:07:26;99652.66;;;33.70;35.03
45467;BME280;31212;49.734;8.490;2022-07-29T12:09:53;99602.78;;;33.84;34.05
45467;BME280;31212;49.734;8.490;2022-07-29T12:12:20;99575.84;;;34.00;33.43
45467;BME280;31212;49.734;8.490;2022-07-29T12:14:48;99575.50;;;33.87;33.88
45467;BME280;31212;49.734;8.490;2022-07-29T12:17:36;99565.69;;;33.61;34.09
45467;BME280;31212;49.734;8.490;2022-07-29T12:20:06;99606.19;;;34.35;33.19
45467;BME280;31212;49.734;8.490;2022-07-29T12:22:34;99609.84;;;34.59;33.60
45467;BME280;31212;49.734;8.490;2022-07-29T12:25:03;99566.22;;;34.56;32.90
45467;BME280;31212;49.734;8.490;2022-07-29T12:27:31;99547.50;;;34.62;32.64
45467;BME280;31212;49.734;8.490;2022-07-29T12:29:59;99582.72;;;34.28;33.54
45467;BME280;31212;49.734;8.490;2022-07-29T12:32:31;99533.59;;;34.09;32.91
45467;BME280;31212;49.734;8.490;2022-07-29T12:34:59;99599.25;;;34.49;33.56
45467;BME280;31212;49.734;8.490;2022-07-29T12:37:27;99529.38;;;34.40;33.03
45467;BME280;31212;49.734;8.490;2022-07-29T12:39:54;99576.69;;;34.50;33.25
45467;BME280;31212;49.734;8.490;2022-07-29T12:42:21;99547.38;;;34.56;32.80
45467;BME280;31212;49.734;8.490;2022-07-29T12:44:49;99510.91;;;34.76;32.15
45467;BME280;31212;49.734;8.490;2022-07-29T12:47:17;99501.56;;;34.23;32.19
45467;BME280;31212;49.734;8.490;2022-07-29T12:49:44;99444.69;;;34.74;31.04
45467;BME280;31212;49.734;8.490;2022-07-29T12:52:23;99482.59;;;35.43;31.16
45467;BME280;31212;49.734;8.490;2022-07-29T12:54:51;99446.88;;;34.70;30.90
45467;BME280;31212;49.734;8.490;2022-07-29T12:57:18;99427.84;;;34.32;31.03
45467;BME280;31212;49.734;8.490;2022-07-29T12:59:58;99483.75;;;34.22;31.83
45467;BME280;31212;49.734;8.490;2022-07-29T13:02:25;99528.84;;;33.62;33.32
45467;BME280;31212;49.734;8.490;2022-07-29T13:04:55;99532.38;;;33.70;33.22
45467;BME280;31212;49.734;8.490;2022-07-29T13:07:24;99574.84;;;33.93;34.45
45467;BME280;31212;49.734;8.490;2022-07-29T13:09:53;99581.41;;;34.15;33.95
45467;BME280;31212;49.734;8.490;2022-07-29T13:12:20;99478.84;;;34.33;32.33
45467;BME280;31212;49.734;8.490;2022-07-29T13:14:49;99442.56;;;34.61;30.89
45467;BME280;31212;49.734;8.490;2022-07-29T13:17:18;99439.66;;;35.02;30.98
45467;BME280;31212;49.734;8.490;2022-07-29T13:19:49;99372.34;;;34.54;30.26
45467;BME280;31212;49.734;8.490;2022-07-29T13:22:18;99440.97;;;34.83;30.86
45467;BME280;31212;49.734;8.490;2022-07-29T13:24:49;99446.66;;;34.40;31.58
45467;BME280;31212;49.734;8.490;2022-07-29T13:27:19;99423.63;;;34.21;31.63
45467;BME280;31212;49.734;8.490;2022-07-29T13:29:46;99429.25;;;34.59;30.98
45467;BME280;31212;49.734;8.490;2022-07-29T13:32:14;99410.41;;;33.95;31.27
45467;BME280;31212;49.734;8.490;2022-07-29T13:34:40;99416.41;;;33.06;32.19
45467;BME280;31212;49.734;8.490;2022-07-29T13:37:07;99491.38;;;32.40;34.12
45467;BME280;31212;49.734;8.490;2022-07-29T13:39:33;99518.81;;;31.81;35.46
45467;BME280;31212;49.734;8.490;2022-07-29T13:42:00;99553.41;;;31.39;36.31
45467;BME280;31212;49.734;8.490;2022-07-29T13:44:28;99578.09;;;31.42;36.23
45467;BME280;31212;49.734;8.490;2022-07-29T13:46:55;99590.66;;;32.06;35.91
45467;BME280;31212;49.734;8.490;2022-07-29T13:49:24;99607.59;;;32.68;35.78
45467;BME280;31212;49.734;8.490;2022-07-29T13:51:50;99626.97;;;32.72;35.87
45467;BME280;31212;49.734;8.490;2022-07-29T13:54:17;99526.47;;;32.39;34.48
45467;BME280;31212;49.734;8.490;2022-07-29T13:56:44;99554.28;;;32.29;34.92
45467;BME280;31212;49.734;8.490;2022-07-29T13:59:11;99565.69;;;32.13;35.66
45467;BME280;31212;49.734;8.490;2022-07-29T14:01:39;99539.16;;;32.10;35.10
45467;BME280;31212;49.734;8.490;2022-07-29T14:04:07;99545.91;;;32.14;35.30
45467;BME280;31212;49.734;8.490;2022-07-29T14:06:34;99562.63;;;32.08;35.32
45467;BME280;31212;49.734;8.490;2022-07-29T14:09:02;99587.91;;;31.61;36.86
45467;BME280;31212;49.734;8.490;2022-07-29T14:11:31;99565.75;;;31.31;36.53
45467;BME280;31212;49.734;8.490;2022-07-29T14:13:57;99552.16;;;30.67;36.64
45467;BME280;31212;49.734;8.490;2022-07-29T14:16:24;99543.59;;;30.64;36.57
45467;BME280;31212;49.734;8.490;2022-07-29T14:18:52;99602.13;;;30.49;37.74
45467;BME280;31212;49.734;8.490;2022-07-29T14:21:19;99593.66;;;30.53;37.66
45467;BME280;31212;49.734;8.490;2022-07-29T14:23:45;99598.84;;;30.75;36.98
45467;BME280;31212;49.734;8.490;2022-07-29T14:26:13;99570.16;;;30.85;36.64
45467;BME280;31212;49.734;8.490;2022-07-29T14:28:39;99608.75;;;31.02;36.69
45467;BME280;31212;49.734;8.490;2022-07-29T14:31:06;99559.41;;;31.05;35.97
45467;BME280;31212;49.734;8.490;2022-07-29T14:33:33;99555.38;;;30.81;36.11
45467;BME280;31212;49.734;8.490;2022-07-29T14:36:01;99538.97;;;30.84;35.66
45467;BME280;31212;49.734;8.490;2022-07-29T14:38:28;99503.44;;;31.19;34.53
45467;BME280;31212;49.734;8.490;2022-07-29T14:40:54;99587.22;;;31.95;35.14